Latest Weather Observations for Hopetoun North

IDW60801

Issued at 6:05 pm WST Saturday 25 October 2014 (issued every 30 minutes, with the page automatically refreshed every 10 minutes)

About weather observations | Map of weather stations | Latest weather observations for WA | Other Formats
Station Details ID: 009961 Name: HOPETOUN NORTH Lat: -33.93 Lon: 120.13 Height: 26.0 m
Data from the previous 72 hours. | See also: Recent months at Hopetoun North
Date/Time
WST
Temp
°C
App
Temp
°C
Dew
Point
Rel
Hum
%
Delta-T
°C
Wind Press
QNH
hPa
Press
MSL
hPa
Rain
since 9 am
mm
Dir
 
Spd
km/h
Gust
km/h
Spd
kts
Gust
kts
25/06:00pm 18.4 18.9 15.6 84 1.7 S 7 11 4 6 1013.8 1013.8 0.0
25/05:30pm 19.9 20.1 14.7 72 3.0 SSE 7 11 4 6 1013.0 1013.0 0.0
25/05:00pm 20.3 20.8 14.9 71 3.2 E 6 9 3 5 1012.6 1012.6 0.0
25/04:30pm 20.2 20.5 15.0 72 3.1 SSE 7 13 4 7 1012.6 1012.6 0.0
25/04:00pm 21.0 20.6 15.3 70 3.4 S 11 15 6 8 1012.6 1012.6 0.0
25/03:30pm 20.4 20.1 15.4 73 3.0 SSE 11 15 6 8 1012.3 1012.3 0.0
25/03:00pm 20.8 20.4 15.1 70 3.4 SSE 11 19 6 10 1012.2 1012.2 0.0
25/02:30pm 20.7 20.2 14.8 69 3.5 SSE 11 17 6 9 1012.1 1012.1 0.0
25/02:00pm 20.4 19.3 15.2 72 3.1 S 15 20 8 11 1012.3 1012.3 0.0
25/01:30pm 20.9 20.3 16.7 77 2.5 S 15 20 8 11 1012.3 1012.3 0.0
25/01:00pm 21.0 20.2 16.2 74 2.9 S 15 22 8 12 1012.4 1012.4 0.0
25/12:30pm 21.3 20.4 14.9 67 3.8 S 13 19 7 10 1012.3 1012.3 0.0
25/12:00pm 21.6 21.1 15.9 70 3.4 SSW 13 19 7 10 1012.3 1012.3 0.0
25/11:30am 20.9 20.2 16.3 75 2.8 SSW 15 20 8 11 1012.7 1012.7 0.0
25/11:00am 19.9 18.8 16.3 80 2.2 SW 17 22 9 12 1012.8 1012.8 0.0
25/10:30am 19.0 16.3 15.5 80 2.1 SW 24 32 13 17 1013.1 1013.1 0.0
25/10:00am 18.8 15.7 15.5 81 1.9 SW 26 33 14 18 1013.2 1013.2 0.0
25/09:30am 19.1 17.2 15.8 81 2.0 SW 20 28 11 15 1013.4 1013.4 0.0
25/09:00am 18.6 17.3 15.8 84 1.7 SW 17 24 9 13 1013.4 1013.4 0.0
25/08:30am 18.7 16.8 15.2 80 2.1 WSW 19 24 10 13 1013.5 1013.5 0.0
25/08:00am 17.6 16.3 14.9 84 1.6 W 15 20 8 11 1013.2 1013.2 0.0
25/07:30am 16.8 15.9 14.8 88 1.2 W 13 20 7 11 1013.3 1013.3 0.0
25/07:00am 16.5 16.1 15.2 92 0.8 W 11 17 6 9 1013.3 1013.3 0.0
25/06:30am 15.9 16.2 15.1 95 0.5 W 7 13 4 7 1013.4 1013.4 0.0
25/06:00am 15.1 16.3 14.9 99 0.1 WSW 2 4 1 2 1013.5 1013.5 0.0
25/05:30am 14.8 16.3 14.6 99 0.1 CALM 0 0 0 0 1013.2 1013.2 0.0
25/05:00am 14.7 15.0 14.5 99 0.1 ENE 6 9 3 5 1013.3 1013.3 0.0
25/04:30am 14.8 15.1 14.6 99 0.1 E 6 7 3 4 1013.3 1013.3 0.0
25/04:00am 14.9 15.3 14.7 99 0.1 ENE 6 9 3 5 1013.3 1013.3 0.0
25/03:30am 15.0 15.2 14.8 99 0.1 NE 7 11 4 6 1013.1 1013.1 0.0
25/03:00am 15.0 14.8 14.7 98 0.2 NE 9 13 5 7 1013.3 1013.3 0.0
25/02:30am 15.1 14.9 14.8 98 0.2 NE 9 15 5 8 1013.2 1013.2 0.0
25/02:00am 15.2 13.9 14.9 98 0.2 ENE 15 20 8 11 1013.1 1013.1 0.0
25/01:30am 15.2 14.7 15.0 99 0.1 NE 11 17 6 9 1013.6 1013.6 0.0
25/01:00am 15.4 15.4 15.2 99 0.1 NE 9 13 5 7 1013.7 1013.7 0.0
25/12:30am 15.7 15.8 15.5 99 0.1 NE 9 13 5 7 1013.8 1013.8 0.0
25/12:00am 16.2 16.7 15.6 96 0.4 NE 7 11 4 6 1014.4 1014.4 0.0
 
Date/Time
WST
Temp
°C
App
Temp
°C
Dew
Point
Rel
Hum
%
Delta-T
°C
Wind Press
QNH
hPa
Press
MSL
hPa
Rain
since 9 am
mm
Dir
 
Spd
km/h
Gust
km/h
Spd
kts
Gust
kts
24/11:30pm 16.6 16.7 15.6 94 0.6 ENE 9 17 5 9 1014.5 1014.5 0.0
24/11:00pm 16.6 16.0 15.6 94 0.6 ENE 13 19 7 10 1014.8 1014.8 0.0
24/10:30pm 16.6 14.7 15.3 92 0.8 ENE 19 26 10 14 1014.9 1014.9 0.0
24/10:00pm 16.7 15.2 15.2 91 0.9 ENE 17 22 9 12 1015.5 1015.4 0.0
24/09:30pm 16.6 15.9 15.3 92 0.8 E 13 19 7 10 1015.8 1015.7 0.0
24/09:00pm 16.6 16.2 15.3 92 0.8 E 11 19 6 10 1016.0 1015.9 0.0
24/08:30pm 16.5 16.1 15.2 92 0.8 E 11 19 6 10 1016.0 1015.9 0.0
24/08:00pm 16.5 15.3 15.0 91 0.9 E 15 24 8 13 1016.0 1015.9 0.0
24/07:30pm 16.3 15.4 14.8 91 0.9 E 13 19 7 10 1015.9 1015.8 0.0
24/07:00pm 16.4 15.4 14.6 89 1.0 E 13 19 7 10 1015.7 1015.6 0.0
24/06:30pm 16.4 15.1 14.8 90 0.9 E 15 24 8 13 1015.5 1015.4 0.0
24/06:00pm 16.6 14.2 14.4 87 1.3 E 20 32 11 17 1015.1 1015.1 0.0
24/05:30pm 17.2 14.0 14.3 83 1.7 E 24 37 13 20 1014.9 1014.9 0.0
24/05:00pm 17.6 14.3 14.1 80 2.0 ESE 24 37 13 20 1014.9 1014.9 0.0
24/04:30pm 18.1 14.8 14.0 77 2.3 ESE 24 37 13 20 1015.0 1015.0 0.0
24/04:00pm 18.5 14.7 13.6 73 2.8 ESE 26 39 14 21 1015.1 1015.1 0.0
24/03:30pm 18.6 14.4 13.5 72 2.9 ESE 28 37 15 20 1015.2 1015.2 0.0
24/03:00pm 19.0 15.6 13.6 71 3.1 ESE 24 32 13 17 1015.5 1015.4 0.0
24/02:30pm 19.2 16.2 13.8 71 3.1 ESE 22 32 12 17 1015.8 1015.7 0.0
24/02:00pm 19.2 16.1 13.4 69 3.3 SE 22 30 12 16 1016.3 1016.2 0.0
24/01:30pm 19.1 15.9 13.1 68 3.4 SE 22 32 12 17 1016.7 1016.6 0.0
24/01:00pm 19.4 16.7 12.9 66 3.7 SE 19 28 10 15 1017.1 1017.0 0.0
24/12:30pm 19.5 17.3 13.2 67 3.6 SE 17 28 9 15 1017.3 1017.2 0.0
24/12:00pm 18.7 16.4 12.9 69 3.3 SSE 17 20 9 11 1017.7 1017.6 0.0
24/11:30am 17.8 16.1 12.3 70 3.0 SSE 13 20 7 11 1018.2 1018.1 0.0
24/11:00am 18.4 16.7 12.6 69 3.2 SE 13 19 7 10 1018.3 1018.2 0.0
24/10:30am 18.1 17.2 12.5 70 3.1 SSE 9 13 5 7 1018.4 1018.3 0.0
24/10:00am 17.8 17.8 12.3 70 3.0 SSW 4 7 2 4 1018.6 1018.5 0.0
24/09:30am 17.4 16.9 11.9 70 3.0 WSW 6 7 3 4 1018.7 1018.6 0.0
24/09:00am 17.1 17.3 11.8 71 2.9 NE 2 7 1 4 1018.9 1018.8 2.6
24/08:30am 16.9 16.4 12.2 74 2.6 SE 6 7 3 4 1018.7 1018.6 2.6
24/08:00am 16.6 16.1 12.2 75 2.4 S 6 9 3 5 1018.6 1018.5 2.6
24/07:30am 16.4 15.5 12.6 78 2.1 SSE 9 15 5 8 1018.5 1018.4 2.6
24/07:00am 16.3 15.0 12.5 78 2.1 S 11 15 6 8 1018.3 1018.2 2.6
24/06:30am 16.1 14.5 12.8 81 1.8 S 13 20 7 11 1018.2 1018.1 2.6
24/06:00am 16.0 14.4 12.7 81 1.8 S 13 17 7 9 1018.1 1018.0 2.6
24/05:30am 15.9 14.2 12.3 79 2.0 S 13 19 7 10 1017.9 1017.8 2.6
24/05:00am 15.8 13.9 12.9 83 1.6 S 15 20 8 11 1017.5 1017.4 2.6
24/04:30am 15.8 14.2 12.7 82 1.7 S 13 19 7 10 1017.3 1017.2 2.6
24/04:00am 15.7 13.2 12.3 80 1.9 S 17 24 9 13 1017.1 1017.0 2.6
24/03:30am 15.8 12.9 12.2 79 2.0 SSW 19 26 10 14 1017.1 1017.0 2.6
24/03:00am 15.5 13.7 13.2 86 1.3 SSW 15 20 8 11 1017.2 1017.1 2.6
24/02:30am 15.4 13.1 14.1 92 0.7 SSW 19 26 10 14 1017.0 1016.9 2.6
24/02:00am 15.4 13.7 14.6 95 0.5 SSW 17 22 9 12 1017.0 1016.9 2.6
24/01:30am 14.9 12.7 14.9 100 0.0 SSW 20 30 11 16 1017.1 1017.0 2.6
24/01:00am 15.6 14.1 15.4 99 0.1 SSW 17 24 9 13 1017.2 1017.1 2.2
24/12:30am 15.1 12.6 15.1 100 0.0 SSW 22 33 12 18 1017.1 1017.0 2.2
24/12:00am 15.2 12.0 15.2 100 0.0 SSW 26 37 14 20 1016.9 1016.8 2.0
 
Date/Time
WST
Temp
°C
App
Temp
°C
Dew
Point
Rel
Hum
%
Delta-T
°C
Wind Press
QNH
hPa
Press
MSL
hPa
Rain
since 9 am
mm
Dir
 
Spd
km/h
Gust
km/h
Spd
kts
Gust
kts
23/11:30pm 15.2 11.6 15.2 100 0.0 SW 28 41 15 22 1017.0 1016.9 1.8
23/11:00pm 15.6 12.1 15.6 100 0.0 SW 28 41 15 22 1016.9 1016.8 0.6
23/10:30pm 16.6 12.8 16.6 100 0.0 WSW 32 46 17 25 1016.9 1016.8 0.0
23/10:00pm 16.8 13.9 16.0 95 0.5 WSW 26 39 14 21 1016.8 1016.7 0.0
23/09:30pm 17.1 13.6 15.6 91 0.9 WSW 28 35 15 19 1016.6 1016.5 0.0
23/09:00pm 17.8 14.9 15.1 84 1.6 WSW 24 37 13 20 1016.5 1016.4 0.0
23/08:30pm 17.8 14.9 15.1 84 1.6 SW 24 33 13 18 1016.2 1016.1 0.0
23/08:00pm 18.2 15.6 15.8 86 1.4 SW 24 35 13 19 1015.9 1015.8 0.0
23/07:30pm 18.4 14.9 15.6 84 1.7 SW 28 39 15 21 1015.2 1015.2 0.0
23/07:00pm 18.5 15.2 16.1 86 1.4 SW 28 41 15 22 1014.3 1014.3 0.0
23/06:30pm 18.3 16.4 16.6 90 1.0 SSW 22 32 12 17 1013.7 1013.7 0.0
23/06:00pm 18.7 15.9 16.3 86 1.4 SW 26 35 14 19 1013.2 1013.2 0.0
23/05:30pm 18.8 16.2 16.8 88 1.2 SSW 26 33 14 18 1012.7 1012.7 0.0
23/05:00pm 19.6 17.2 16.4 82 1.9 SSW 24 32 13 17 1012.3 1012.3 0.0
23/04:30pm 19.1 16.8 16.7 86 1.4 SSW 24 35 13 19 1011.8 1011.8 0.0
23/04:00pm 20.2 17.6 16.8 81 2.1 SSW 26 33 14 18 1011.4 1011.4 0.0
23/03:30pm 20.6 17.1 15.6 73 3.0 SSW 28 37 15 20 1011.1 1011.1 0.0
23/03:00pm 20.7 18.6 14.6 68 3.6 SSW 19 28 10 15 1010.7 1010.7 0.0
23/02:30pm 21.4 19.1 14.1 63 4.2 SSW 19 28 10 15 1010.4 1010.4 0.0
23/02:00pm 25.1 20.9 12.3 45 7.4 WSW 26 39 14 21 1010.1 1010.1 0.0
23/01:30pm 25.3 20.2 10.7 40 8.2 W 28 41 15 22 1010.1 1010.1 0.0
23/01:00pm 25.9 20.4 10.5 38 8.6 W 30 44 16 24 1010.2 1010.2 0.0
23/12:40pm 25.5 20.6 11.3 41 8.0 W 28 46 15 25 1010.1 1010.1 0.0
23/12:30pm 25.7 19.6 9.9 37 8.7 W 32 46 17 25 1010.1 1010.1 0.0
23/12:00pm 25.4 20.5 10.1 38 8.5 WNW 26 43 14 23 1010.0 1010.0 0.0
23/11:30am 24.3 18.5 9.5 39 8.1 W 30 48 16 26 1010.1 1010.1 0.0
23/11:12am 24.8 19.8 11.0 42 7.7 W 28 52 15 28 1010.2 1010.2 0.0
23/11:00am 24.4 19.2 11.7 45 7.2 W 30 44 16 24 1010.2 1010.2 0.0
23/10:42am 24.0 19.2 11.7 46 7.0 WNW 28 48 15 26 1010.3 1010.3 0.0
23/10:30am 23.6 18.3 11.3 46 6.9 WNW 30 44 16 24 1010.4 1010.4 0.0
23/10:00am 22.1 17.2 12.4 54 5.5 W 30 48 16 26 1010.5 1010.5 0.0
23/09:58am 22.4 17.3 11.8 51 6.0 W 30 48 16 26 1010.6 1010.6 0.0
23/09:30am 23.2 18.4 11.6 48 6.5 WNW 28 44 15 24 1010.6 1010.6 0.0
23/09:00am 21.9 16.8 11.9 53 5.6 W 30 46 16 25 1010.6 1010.6 0.8
23/08:30am 21.6 17.9 12.7 57 5.1 WNW 24 37 13 20 1010.6 1010.6 0.8
23/08:00am 20.2 16.9 12.9 63 4.1 NW 22 39 12 21 1010.5 1010.5 0.8
23/07:30am 19.0 16.7 13.0 68 3.4 WNW 17 28 9 15 1010.6 1010.6 0.8
23/07:00am 17.7 16.3 13.4 76 2.4 NNW 13 20 7 11 1010.7 1010.7 0.8
23/06:30am 17.2 15.1 13.7 80 2.0 NNW 17 28 9 15 1010.9 1010.9 0.8
23/06:00am 16.5 14.9 13.8 84 1.5 NNW 15 22 8 12 1010.5 1010.5 0.8
23/05:30am 16.3 14.7 14.0 86 1.3 NNW 15 24 8 13 1009.8 1009.8 0.8
23/05:00am 16.9 14.6 14.0 83 1.7 NW 19 30 10 16 1009.4 1009.4 0.8
23/04:30am 17.4 13.5 14.3 82 1.8 NW 28 41 15 22 1009.4 1009.4 0.8
23/04:00am 17.5 14.8 14.6 83 1.7 NW 22 35 12 19 1009.7 1009.7 0.8
23/03:30am 17.6 16.5 15.2 86 1.4 NW 15 24 8 13 1009.3 1009.3 0.8
23/03:00am 18.3 18.2 15.9 86 1.4 NW 11 22 6 12 1009.3 1009.3 0.8
23/02:30am 18.5 18.5 17.2 92 0.8 N 13 19 7 10 1009.2 1009.2 0.8
23/02:00am 17.5 17.5 17.3 99 0.1 NNE 13 22 7 12 1009.3 1009.3 0.8
23/01:30am 17.4 16.0 17.1 98 0.2 NE 20 28 11 15 1009.3 1009.3 0.8
23/01:00am 17.6 16.4 17.4 99 0.1 NNE 20 32 11 17 1009.4 1009.4 0.8
23/12:30am 17.4 14.5 17.1 98 0.2 ENE 28 41 15 22 1008.8 1008.8 0.8
23/12:00am 18.1 15.9 17.0 93 0.7 NE 24 37 13 20 1008.4 1008.4 0.8
 
Date/Time
WST
Temp
°C
App
Temp
°C
Dew
Point
Rel
Hum
%
Delta-T
°C
Wind Press
QNH
hPa
Press
MSL
hPa
Rain
since 9 am
mm
Dir
 
Spd
km/h
Gust
km/h
Spd
kts
Gust
kts
22/11:30pm 18.9 16.6 15.8 82 1.8 NE 22 33 12 18 1008.7 1008.7 0.8
22/11:00pm 19.4 17.9 16.4 83 1.8 NE 19 26 10 14 1008.8 1008.8 0.8
22/10:30pm 19.1 17.6 17.8 92 0.8 E 22 35 12 19 1009.2 1009.2 0.8
22/10:00pm 19.0 17.9 17.7 92 0.8 ENE 20 39 11 21 1010.3 1010.3 0.6
22/09:30pm 18.8 16.5 17.6 93 0.7 ENE 26 39 14 21 1010.6 1010.6 0.2
22/09:00pm 18.0 17.0 18.0 100 0.0 E 20 30 11 16 1010.1 1010.1 0.2
22/08:30pm 18.3 19.3 17.7 96 0.4 E 9 15 5 8 1011.1 1011.1 0.0
22/08:00pm 18.6 18.3 17.3 92 0.8 ENE 15 20 8 11 1012.3 1012.3 0.0
22/07:30pm 18.3 17.5 17.0 92 0.8 E 17 28 9 15 1011.6 1011.6 0.0
22/07:00pm 18.3 16.4 16.8 91 0.9 E 22 33 12 18 1011.3 1011.3 0.0
22/06:30pm 18.1 16.5 16.6 91 0.9 E 20 32 11 17 1011.5 1011.5 0.0

Other Formats:

Comma delimited format used in spreadsheet applications
http://www.bom.gov.au/fwo/IDW60801/IDW60801.95635.axf

JavaScript Object Notation format (JSON) in row-major order
http://www.bom.gov.au/fwo/IDW60801/IDW60801.95635.json